Time;durP1;ratioP1;P1;durP2;ratioP2;P2;SDS_P1;SDS_P2;PMS_P1;PMS_P2;Temp;Humidity;BMP_temperature;BMP_pressure;BME280_temperature;BME280_humidity;BME280_pressure;Samples;Min_cycle;Max_cycle;Signal;HPM_P1;HPM_P2
2022/07/12 00:01:03;;;;;;;0.88;0.73;;;16.50;99.90;;;;;;6125935;23;20205;-70
2022/07/12 00:03:29;;;;;;;0.50;0.50;;;16.50;99.90;;;;;;6126022;23;20174;-70
2022/07/12 00:05:56;;;;;;;0.50;0.50;;;16.50;99.90;;;;;;6125682;23;20200;-71
2022/07/12 00:08:22;;;;;;;0.77;0.77;;;16.50;99.90;;;;;;6126104;23;20153;-69
2022/07/12 00:10:47;;;;;;;0.75;0.75;;;16.50;99.90;;;;;;6125759;23;20170;-69
2022/07/12 00:13:13;;;;;;;0.52;0.45;;;16.50;99.90;;;;;;6125831;23;20229;-70
2022/07/12 00:15:39;;;;;;;2.75;0.40;;;16.50;99.90;;;;;;6125382;23;20221;-69
2022/07/12 00:18:04;;;;;;;1.00;0.95;;;16.60;99.90;;;;;;6125874;23;20189;-69
2022/07/12 00:20:30;;;;;;;0.65;0.65;;;16.60;99.90;;;;;;6125653;23;20178;-69
2022/07/12 00:22:56;;;;;;;0.90;0.90;;;16.60;99.90;;;;;;6126131;23;20532;-69
2022/07/12 00:25:21;;;;;;;1.48;1.02;;;16.60;99.90;;;;;;6125781;23;20169;-70
2022/07/12 00:27:47;;;;;;;0.90;0.90;;;16.60;99.90;;;;;;6125697;23;20225;-69
2022/07/12 00:30:13;;;;;;;1.27;0.75;;;16.50;99.90;;;;;;6125299;23;20173;-69
2022/07/12 00:32:38;;;;;;;1.08;1.08;;;16.40;99.90;;;;;;6125786;23;20151;-70
2022/07/12 00:35:05;;;;;;;1.38;1.10;;;16.20;99.90;;;;;;6125858;23;20147;-69
2022/07/12 00:37:32;;;;;;;1.13;0.98;;;16.20;99.90;;;;;;6125617;23;20150;-69
2022/07/12 00:39:58;;;;;;;0.90;0.90;;;16.20;99.90;;;;;;6125531;23;20201;-70
2022/07/12 00:42:25;;;;;;;1.50;0.90;;;16.20;99.90;;;;;;6125661;23;20158;-69
2022/07/12 00:44:51;;;;;;;0.93;0.93;;;16.20;99.90;;;;;;6125871;23;20476;-69
2022/07/12 00:47:36;;;;;;;0.98;0.98;;;16.00;99.90;;;;;;6125687;23;20184;-70
2022/07/12 00:50:06;;;;;;;1.08;1.00;;;16.00;99.90;;;;;;6124756;23;20170;-69
2022/07/12 00:52:32;;;;;;;0.80;0.80;;;15.90;99.90;;;;;;6125584;23;20619;-70
2022/07/12 00:54:58;;;;;;;0.70;0.70;;;15.90;99.90;;;;;;6125635;23;20146;-69
2022/07/12 00:57:23;;;;;;;0.82;0.82;;;15.90;99.90;;;;;;6125575;23;20520;-69
2022/07/12 00:59:49;;;;;;;0.90;0.90;;;15.80;99.90;;;;;;6125649;23;20150;-70
2022/07/12 01:02:16;;;;;;;0.82;0.82;;;15.80;99.90;;;;;;6126316;23;20161;-70
2022/07/12 01:04:43;;;;;;;0.77;0.77;;;15.60;99.90;;;;;;6125719;23;20201;-69
2022/07/12 01:07:08;;;;;;;1.42;1.30;;;15.50;99.90;;;;;;6126040;23;20404;-69
2022/07/12 01:09:34;;;;;;;1.00;1.00;;;15.50;99.90;;;;;;6124863;23;20642;-69
2022/07/12 01:12:00;;;;;;;1.00;1.00;;;15.50;99.90;;;;;;6125383;23;20166;-69
2022/07/12 01:14:26;;;;;;;1.67;1.10;;;15.40;99.90;;;;;;6125694;23;20184;-69
2022/07/12 01:16:52;;;;;;;0.85;0.85;;;15.40;99.90;;;;;;6125497;23;20600;-69
2022/07/12 01:19:20;;;;;;;0.95;0.82;;;15.30;99.90;;;;;;6125470;23;20150;-70
2022/07/12 01:21:50;;;;;;;1.00;0.80;;;15.30;99.90;;;;;;6125603;23;20178;-69
2022/07/12 01:24:20;;;;;;;0.70;0.70;;;15.30;99.90;;;;;;6125621;23;20166;-69
2022/07/12 01:26:47;;;;;;;0.85;0.85;;;15.30;99.90;;;;;;6124772;23;20186;-70
2022/07/12 01:29:14;;;;;;;1.05;1.05;;;15.20;99.90;;;;;;6125238;23;20642;-69
2022/07/12 01:31:40;;;;;;;0.73;0.73;;;15.20;99.90;;;;;;6125662;23;20636;-70
2022/07/12 01:34:06;;;;;;;0.82;0.82;;;15.20;99.90;;;;;;6125508;23;20157;-70
2022/07/12 01:36:32;;;;;;;1.15;1.00;;;15.20;99.90;;;;;;6125501;23;20156;-69
2022/07/12 01:38:58;;;;;;;1.98;0.82;;;15.30;99.90;;;;;;6125687;23;20233;-69
2022/07/12 01:41:24;;;;;;;1.02;1.02;;;15.40;99.90;;;;;;6125164;23;20645;-69
2022/07/12 01:43:53;;;;;;;1.23;1.13;;;15.50;99.90;;;;;;6125364;23;20154;-71
2022/07/12 01:46:19;;;;;;;1.15;1.10;;;15.50;99.90;;;;;;6125159;23;20182;-69
2022/07/12 01:48:45;;;;;;;0.80;0.80;;;15.50;99.90;;;;;;6125521;23;20150;-69
2022/07/12 01:51:10;;;;;;;1.23;1.13;;;15.40;99.90;;;;;;6125414;23;20201;-69
2022/07/12 01:53:36;;;;;;;1.20;1.20;;;15.40;99.90;;;;;;6125656;23;20154;-70
2022/07/12 01:56:05;;;;;;;1.00;1.00;;;15.40;99.90;;;;;;6125481;23;20472;-71
2022/07/12 01:58:31;;;;;;;0.93;0.90;;;15.50;99.90;;;;;;6125056;23;20197;-69
2022/07/12 02:00:58;;;;;;;2.00;1.15;;;15.50;99.90;;;;;;6124890;23;20178;-69
2022/07/12 02:03:24;;;;;;;1.10;1.00;;;15.50;99.90;;;;;;6124799;23;20160;-69
2022/07/12 02:05:49;;;;;;;1.10;1.00;;;15.50;99.90;;;;;;6125296;23;20499;-69
2022/07/12 02:08:15;;;;;;;1.00;1.00;;;15.50;99.90;;;;;;6125470;23;20156;-69
2022/07/12 02:10:41;;;;;;;2.40;1.02;;;15.50;99.90;;;;;;6125439;23;20169;-69
2022/07/12 02:13:07;;;;;;;0.95;0.95;;;15.60;99.90;;;;;;6125552;23;20530;-69
2022/07/12 02:15:33;;;;;;;0.88;0.88;;;15.60;99.90;;;;;;6125395;23;20182;-69
2022/07/12 02:17:59;;;;;;;0.60;0.60;;;15.70;99.90;;;;;;6124938;23;20189;-70
2022/07/12 02:20:24;;;;;;;0.98;0.98;;;15.70;99.90;;;;;;6124619;23;20174;-69
2022/07/12 02:22:50;;;;;;;2.25;1.00;;;15.70;99.90;;;;;;6125540;23;20226;-69
2022/07/12 02:25:16;;;;;;;0.90;0.90;;;15.60;99.90;;;;;;6124856;23;20170;-69
2022/07/12 02:27:43;;;;;;;0.90;0.90;;;15.70;99.90;;;;;;6125288;23;20209;-69
2022/07/12 02:30:10;;;;;;;0.90;0.90;;;15.70;99.90;;;;;;6124928;23;20170;-70
2022/07/12 02:32:37;;;;;;;1.10;1.00;;;15.70;99.90;;;;;;6125222;23;20154;-69
2022/07/12 02:35:06;;;;;;;0.80;0.80;;;15.70;99.90;;;;;;6124869;23;20170;-69
2022/07/12 02:37:32;;;;;;;0.90;0.90;;;15.60;99.90;;;;;;6125323;23;20621;-69
2022/07/12 02:42:43;;;;;;;0.80;0.80;;;15.70;99.90;;;;;;6125262;23;20148;-70
2022/07/12 02:45:10;;;;;;;0.82;0.82;;;15.80;99.90;;;;;;6125008;23;20154;-68
2022/07/12 02:47:40;;;;;;;2.40;0.90;;;15.80;99.90;;;;;;6125056;23;20174;-70
2022/07/12 02:50:06;;;;;;;1.02;1.02;;;15.70;99.90;;;;;;6124972;23;20166;-69
2022/07/12 02:52:32;;;;;;;2.13;0.98;;;15.60;99.90;;;;;;6125077;23;20270;-70
2022/07/12 02:54:58;;;;;;;1.23;1.15;;;15.70;99.90;;;;;;6124976;23;20170;-69
2022/07/12 02:57:23;;;;;;;0.90;0.90;;;15.70;99.90;;;;;;6125079;23;20154;-70
2022/07/12 02:59:49;;;;;;;1.55;1.10;;;15.60;99.90;;;;;;6124387;23;20161;-69
2022/07/12 03:02:15;;;;;;;1.30;1.30;;;15.70;99.90;;;;;;6125027;23;20154;-68
2022/07/12 03:04:41;;;;;;;1.15;1.15;;;15.70;99.90;;;;;;6125394;23;20610;-69
2022/07/12 03:07:06;;;;;;;0.98;0.90;;;15.60;99.90;;;;;;6124999;23;20185;-69
2022/07/12 03:09:32;;;;;;;1.08;1.02;;;15.60;99.90;;;;;;6122759;23;20157;-69
2022/07/12 03:11:58;;;;;;;1.33;1.33;;;15.60;99.90;;;;;;6125010;23;20177;-69
2022/07/12 03:14:23;;;;;;;1.40;1.30;;;15.60;99.90;;;;;;6125095;23;20157;-69
2022/07/12 03:16:50;;;;;;;1.20;0.88;;;15.50;99.90;;;;;;6125600;23;20150;-69
2022/07/12 03:19:16;;;;;;;0.90;0.90;;;15.50;99.90;;;;;;6126371;23;20384;-69
2022/07/12 03:21:42;;;;;;;1.10;1.10;;;15.40;99.90;;;;;;6127286;23;20179;-69
2022/07/12 03:24:07;;;;;;;1.65;1.25;;;15.40;99.90;;;;;;6127007;23;20154;-69
2022/07/12 03:26:33;;;;;;;1.30;1.30;;;15.40;99.90;;;;;;6126237;23;20181;-70
2022/07/12 03:29:00;;;;;;;1.02;0.93;;;15.30;99.90;;;;;;6126256;23;20146;-72
2022/07/12 03:31:26;;;;;;;0.82;0.82;;;15.20;99.90;;;;;;6126362;23;20501;-69
2022/07/12 03:33:52;;;;;;;1.10;1.00;;;15.20;99.90;;;;;;6126205;23;20157;-69
2022/07/12 03:36:18;;;;;;;1.40;1.30;;;15.10;99.90;;;;;;6126231;23;20526;-69
2022/07/12 03:38:44;;;;;;;1.23;1.20;;;15.10;99.90;;;;;;6126217;23;20157;-69
2022/07/12 03:41:09;;;;;;;1.15;1.15;;;15.00;99.90;;;;;;6126372;23;20170;-70
2022/07/12 03:43:35;;;;;;;1.00;1.00;;;14.90;99.90;;;;;;6126295;23;20158;-69
2022/07/12 03:46:01;;;;;;;0.90;0.90;;;14.90;99.90;;;;;;6126563;23;20150;-69
2022/07/12 03:48:26;;;;;;;1.33;1.15;;;14.80;99.90;;;;;;6126434;23;20546;-69
2022/07/12 03:50:52;;;;;;;2.08;1.30;;;14.80;99.90;;;;;;6126103;23;20166;-70
2022/07/12 03:53:17;;;;;;;1.33;1.30;;;14.80;99.90;;;;;;6125625;23;20154;-71
2022/07/12 03:55:43;;;;;;;1.50;1.40;;;14.80;99.90;;;;;;6126537;23;20154;-69
2022/07/12 03:58:09;;;;;;;1.15;1.15;;;14.80;99.90;;;;;;6126559;23;20150;-69
2022/07/12 04:00:34;;;;;;;2.30;1.60;;;14.70;99.90;;;;;;6125979;23;20205;-69
2022/07/12 04:03:00;;;;;;;1.63;1.50;;;14.70;99.90;;;;;;6125919;23;20161;-70
2022/07/12 04:05:26;;;;;;;1.30;1.30;;;14.70;99.90;;;;;;6126075;23;20162;-69
2022/07/12 04:07:53;;;;;;;3.70;1.50;;;14.70;99.90;;;;;;6126224;23;20270;-69
2022/07/12 04:10:19;;;;;;;1.88;1.45;;;14.60;99.90;;;;;;6125847;23;20196;-69
2022/07/12 04:12:45;;;;;;;1.95;1.85;;;14.60;99.90;;;;;;6125899;23;20150;-69
2022/07/12 04:15:11;;;;;;;1.33;1.33;;;14.60;99.90;;;;;;6126005;23;20153;-69
2022/07/12 04:17:37;;;;;;;1.60;1.40;;;14.70;99.90;;;;;;6125958;23;20162;-71
2022/07/12 04:20:03;;;;;;;1.55;1.17;;;14.70;99.90;;;;;;6125973;23;20236;-69
2022/07/12 04:22:29;;;;;;;0.95;0.95;;;14.70;99.90;;;;;;6126212;23;20177;-70
2022/07/12 04:24:54;;;;;;;1.55;1.45;;;14.70;99.90;;;;;;6125996;23;20228;-69
2022/07/12 04:27:20;;;;;;;1.38;1.38;;;14.80;99.90;;;;;;6099763;23;20173;-69
2022/07/12 04:29:46;;;;;;;2.13;1.20;;;14.80;99.90;;;;;;6125133;23;20209;-69
2022/07/12 04:32:11;;;;;;;1.30;1.20;;;14.80;99.90;;;;;;6126426;23;20176;-69
2022/07/12 04:34:37;;;;;;;1.30;1.30;;;14.80;99.90;;;;;;6125922;23;20490;-71
2022/07/12 04:37:03;;;;;;;1.67;1.58;;;14.80;99.90;;;;;;6126131;23;20150;-69
2022/07/12 04:39:29;;;;;;;2.35;1.55;;;14.80;99.90;;;;;;6125896;23;20161;-69
2022/07/12 04:41:54;;;;;;;1.05;1.05;;;14.90;99.90;;;;;;6126297;23;20170;-69
2022/07/12 04:44:20;;;;;;;1.30;1.08;;;14.90;99.90;;;;;;6125759;23;20154;-69
2022/07/12 04:46:46;;;;;;;1.20;1.20;;;15.00;99.90;;;;;;6125548;23;20301;-69
2022/07/12 04:49:11;;;;;;;1.20;1.20;;;15.00;99.90;;;;;;6125526;23;20591;-73
2022/07/12 04:51:37;;;;;;;1.55;1.40;;;15.00;99.90;;;;;;6125802;23;20620;-69
2022/07/12 04:54:03;;;;;;;1.00;1.00;;;15.00;99.90;;;;;;6099591;23;20146;-69
2022/07/12 04:56:29;;;;;;;1.77;1.35;;;15.00;99.90;;;;;;6125662;23;20225;-69
2022/07/12 04:58:54;;;;;;;1.48;1.25;;;15.20;99.90;;;;;;6125388;23;20229;-68
2022/07/12 05:01:20;;;;;;;1.58;1.48;;;15.20;99.90;;;;;;6125563;23;20177;-70
2022/07/12 05:03:47;;;;;;;1.45;1.30;;;15.30;99.90;;;;;;6125342;23;20591;-69
2022/07/12 05:06:12;;;;;;;1.10;1.10;;;15.40;99.90;;;;;;6125560;23;20538;-69
2022/07/12 05:08:38;;;;;;;1.73;1.17;;;15.60;99.90;;;;;;6124907;23;20234;-70
2022/07/12 05:11:04;;;;;;;0.90;0.90;;;15.60;99.90;;;;;;6125463;23;20620;-70
2022/07/12 05:13:30;;;;;;;1.45;1.40;;;15.70;99.90;;;;;;6125574;23;20205;-70
2022/07/12 05:15:56;;;;;;;1.33;1.33;;;15.80;99.90;;;;;;6125745;23;20178;-69
2022/07/12 05:18:22;;;;;;;1.83;1.15;;;15.90;99.90;;;;;;6125602;23;20227;-69
2022/07/12 05:20:47;;;;;;;1.58;1.30;;;16.00;99.90;;;;;;6124444;23;20506;-70
2022/07/12 05:23:13;;;;;;;1.17;1.17;;;16.00;99.90;;;;;;6125411;23;20233;-70
2022/07/12 05:25:39;;;;;;;1.13;1.13;;;16.10;99.90;;;;;;6125632;23;20200;-69
2022/07/12 05:28:05;;;;;;;1.40;1.30;;;16.10;99.90;;;;;;6124899;23;20178;-69
2022/07/12 05:30:31;;;;;;;0.80;0.80;;;16.20;99.90;;;;;;6125289;23;20545;-70
2022/07/12 05:32:56;;;;;;;0.75;0.75;;;16.20;99.90;;;;;;6125720;23;20146;-71
2022/07/12 05:35:22;;;;;;;1.55;1.20;;;16.20;99.90;;;;;;6125171;23;20157;-69
2022/07/12 05:37:48;;;;;;;2.25;1.20;;;16.20;99.90;;;;;;6125203;23;20161;-69
2022/07/12 05:40:13;;;;;;;1.38;1.20;;;16.30;99.90;;;;;;6124613;23;20209;-70
2022/07/12 05:42:39;;;;;;;1.55;1.45;;;16.30;99.90;;;;;;6125161;23;20236;-69
2022/07/12 05:45:06;;;;;;;1.58;1.55;;;16.40;99.90;;;;;;6124733;23;20154;-70
2022/07/12 05:47:31;;;;;;;2.50;1.60;;;16.50;99.90;;;;;;6124849;23;20170;-70
2022/07/12 05:49:57;;;;;;;1.40;1.30;;;16.50;99.90;;;;;;6098768;23;20203;-71
2022/07/12 05:55:07;;;;;;;1.33;1.33;;;16.60;99.90;;;;;;6125073;23;20189;-69
2022/07/12 05:57:32;;;;;;;1.38;1.27;;;16.70;99.90;;;;;;6124558;23;20203;-70
2022/07/12 05:59:58;;;;;;;1.55;1.20;;;16.80;99.90;;;;;;6124584;23;20173;-69
2022/07/12 06:02:24;;;;;;;1.50;1.45;;;16.80;99.90;;;;;;6099042;23;20170;-70
2022/07/12 06:04:49;;;;;;;1.40;1.30;;;16.90;99.90;;;;;;6124603;23;20491;-69
2022/07/12 06:07:15;;;;;;;1.40;1.40;;;16.90;99.90;;;;;;6124860;23;20229;-69
2022/07/12 06:09:40;;;;;;;1.67;1.50;;;17.00;99.90;;;;;;6124946;23;20614;-69
2022/07/12 06:12:06;;;;;;;1.48;1.40;;;17.00;99.90;;;;;;6124865;23;20237;-70
2022/07/12 06:14:32;;;;;;;1.42;1.40;;;17.00;99.90;;;;;;6124099;23;20152;-70
2022/07/12 06:16:58;;;;;;;1.90;1.38;;;17.00;99.90;;;;;;6125227;23;20153;-69
2022/07/12 06:19:23;;;;;;;2.08;1.33;;;17.10;99.90;;;;;;6124766;23;20221;-69
2022/07/12 06:21:49;;;;;;;4.20;1.58;;;17.20;99.90;;;;;;6124865;23;20169;-70
2022/07/12 06:24:15;;;;;;;1.40;1.25;;;17.30;99.90;;;;;;6124745;23;20157;-69
2022/07/12 06:26:40;;;;;;;1.50;1.50;;;17.30;99.90;;;;;;6124569;23;20214;-70
2022/07/12 06:29:06;;;;;;;6.20;2.00;;;17.40;99.90;;;;;;6124665;23;20526;-72
2022/07/12 06:31:34;;;;;;;1.90;1.42;;;17.40;99.90;;;;;;6124376;23;20170;-69
2022/07/12 06:33:59;;;;;;;1.70;1.30;;;17.50;99.90;;;;;;6124293;23;20550;-69
2022/07/12 06:36:25;;;;;;;3.38;1.52;;;17.50;99.90;;;;;;6124885;23;20157;-70
2022/07/12 06:38:51;;;;;;;2.97;1.65;;;17.60;99.90;;;;;;6124347;23;20185;-70
2022/07/12 06:41:16;;;;;;;1.92;1.67;;;17.70;99.90;;;;;;6124231;23;20612;-69
2022/07/12 06:43:42;;;;;;;1.90;1.70;;;17.70;99.90;;;;;;6124829;23;20786;-69
2022/07/12 06:46:08;;;;;;;1.20;1.20;;;17.70;99.90;;;;;;6124653;23;20150;-70
2022/07/12 06:48:33;;;;;;;2.55;1.77;;;17.80;99.90;;;;;;6124203;23;20221;-70
2022/07/12 06:50:59;;;;;;;1.20;1.20;;;17.90;99.90;;;;;;6124671;23;20661;-70
2022/07/12 06:53:24;;;;;;;1.45;1.35;;;18.00;99.90;;;;;;6126036;23;20156;-69
2022/07/12 06:55:50;;;;;;;1.30;1.30;;;18.10;99.90;;;;;;6126157;23;20663;-69
2022/07/12 06:58:16;;;;;;;2.17;1.30;;;18.30;99.90;;;;;;6126440;23;20161;-69
2022/07/12 07:00:42;;;;;;;1.45;1.35;;;18.40;99.90;;;;;;6126162;23;20204;-70
2022/07/12 07:03:08;;;;;;;2.97;1.40;;;18.50;99.90;;;;;;6126479;23;20150;-71
2022/07/12 07:05:34;;;;;;;1.27;1.27;;;18.60;99.90;;;;;;6126501;23;20224;-69
2022/07/12 07:08:00;;;;;;;1.48;1.38;;;18.70;99.90;;;;;;6126188;23;20623;-70
2022/07/12 07:10:25;;;;;;;2.10;1.42;;;18.80;99.90;;;;;;6125496;23;20546;-73
2022/07/12 07:12:51;;;;;;;1.50;1.40;;;18.90;99.90;;;;;;6126439;23;20189;-69
2022/07/12 07:15:16;;;;;;;1.35;1.30;;;18.90;99.90;;;;;;6126125;23;20150;-69
2022/07/12 07:17:42;;;;;;;1.48;1.38;;;18.90;99.90;;;;;;6126698;23;20153;-69
2022/07/12 07:20:10;;;;;;;1.23;1.17;;;19.10;99.90;;;;;;6125958;23;20173;-70
2022/07/12 07:22:35;;;;;;;2.47;1.40;;;19.20;99.90;;;;;;6126313;23;20138;-69
2022/07/12 07:25:01;;;;;;;1.30;1.30;;;19.30;99.90;;;;;;6125496;23;20158;-69
2022/07/12 07:27:27;;;;;;;3.85;1.20;;;19.40;99.90;;;;;;6126469;23;20196;-70
2022/07/12 07:32:36;;;;;;;1.30;1.20;;;19.60;99.90;;;;;;6125820;23;20157;-70
2022/07/12 07:35:04;;;;;;;1.38;1.27;;;19.70;99.90;;;;;;6125909;23;20154;-71
2022/07/12 07:37:29;;;;;;;1.30;1.20;;;19.80;99.90;;;;;;6126020;23;20157;-70
2022/07/12 07:39:55;;;;;;;1.30;1.30;;;20.00;99.90;;;;;;6125786;23;20154;-69
2022/07/12 07:42:21;;;;;;;1.08;1.08;;;20.00;99.90;;;;;;6125230;23;20158;-70
2022/07/12 07:44:46;;;;;;;1.35;1.25;;;20.20;99.90;;;;;;6125948;23;20157;-70
2022/07/12 07:47:12;;;;;;;1.10;1.10;;;20.30;99.90;;;;;;6125761;23;20430;-69
2022/07/12 07:49:37;;;;;;;1.52;1.20;;;20.40;99.90;;;;;;6125841;23;20608;-70
2022/07/12 07:52:03;;;;;;;0.93;0.93;;;20.40;99.90;;;;;;6125513;23;20154;-69
2022/07/12 07:54:29;;;;;;;2.17;1.08;;;20.50;99.90;;;;;;6125875;23;20146;-70
2022/07/12 07:56:54;;;;;;;2.15;1.13;;;20.70;99.90;;;;;;6125493;23;20142;-70
2022/07/12 07:59:20;;;;;;;2.35;1.20;;;20.70;99.90;;;;;;6124760;23;20166;-69
2022/07/12 08:01:46;;;;;;;1.48;1.38;;;20.80;99.90;;;;;;6125594;23;20499;-69
2022/07/12 08:04:13;;;;;;;1.40;1.30;;;20.80;99.90;;;;;;6125666;23;20150;-71
2022/07/12 08:06:39;;;;;;;1.48;1.33;;;20.90;99.90;;;;;;6125645;23;20257;-69
2022/07/12 08:09:05;;;;;;;1.00;0.85;;;21.10;99.90;;;;;;6125309;23;20158;-69
2022/07/12 08:11:32;;;;;;;1.00;1.00;;;21.30;99.90;;;;;;6125549;23;20197;-69
2022/07/12 08:13:57;;;;;;;0.93;0.93;;;21.30;99.90;;;;;;6125630;23;20197;-72
2022/07/12 08:16:23;;;;;;;2.08;1.15;;;21.50;99.90;;;;;;6124944;23;20644;-70
2022/07/12 08:18:49;;;;;;;1.35;1.25;;;21.60;99.70;;;;;;6125472;23;20348;-69
2022/07/12 08:21:14;;;;;;;1.95;1.00;;;21.60;98.60;;;;;;6125472;23;20628;-69
2022/07/12 08:23:40;;;;;;;1.30;1.30;;;21.70;97.70;;;;;;6125262;23;20154;-71
2022/07/12 08:26:05;;;;;;;1.65;1.30;;;21.70;96.90;;;;;;6125294;23;20552;-69
2022/07/12 08:28:31;;;;;;;2.25;1.00;;;21.80;96.90;;;;;;6125197;23;20488;-69
2022/07/12 08:30:56;;;;;;;1.52;1.40;;;21.90;95.80;;;;;;6125298;23;20173;-69
2022/07/12 08:33:22;;;;;;;1.15;0.98;;;22.00;95.60;;;;;;6124689;23;20589;-70
2022/07/12 08:35:48;;;;;;;1.48;1.40;;;22.10;94.20;;;;;;6125306;23;20188;-69
2022/07/12 08:38:15;;;;;;;1.00;1.00;;;22.20;92.40;;;;;;6125360;23;20154;-69
2022/07/12 08:40:41;;;;;;;2.35;1.00;;;22.20;91.30;;;;;;6124770;23;20176;-70
2022/07/12 08:43:07;;;;;;;1.00;1.00;;;22.30;90.40;;;;;;6125232;23;20162;-70
2022/07/12 08:45:32;;;;;;;1.10;1.08;;;22.30;90.00;;;;;;6125301;23;20249;-70
2022/07/12 08:47:58;;;;;;;1.33;1.20;;;22.30;90.50;;;;;;6125213;23;20184;-69
2022/07/12 08:50:25;;;;;;;1.42;1.00;;;22.50;92.50;;;;;;6124868;23;20166;-69
2022/07/12 08:52:52;;;;;;;1.50;1.40;;;22.70;91.90;;;;;;6124433;23;20483;-71
2022/07/12 08:55:20;;;;;;;2.05;1.02;;;23.00;92.10;;;;;;6125291;23;20180;-69
2022/07/12 08:57:46;;;;;;;1.77;1.20;;;23.40;87.10;;;;;;6125144;23;20160;-69
2022/07/12 09:00:12;;;;;;;1.17;1.02;;;23.60;90.60;;;;;;6124642;23;20170;-70
2022/07/12 09:02:44;;;;;;;1.75;1.10;;;23.90;87.50;;;;;;6125001;23;20469;-70
2022/07/12 09:05:10;;;;;;;1.13;0.90;;;24.10;87.80;;;;;;6125201;23;20145;-70
2022/07/12 09:07:36;;;;;;;1.27;0.98;;;24.20;81.80;;;;;;6124982;23;20170;-69
2022/07/12 09:10:10;;;;;;;1.80;1.15;;;24.30;81.90;;;;;;6124376;23;20253;-69
2022/07/12 09:12:36;;;;;;;0.90;0.90;;;24.40;81.00;;;;;;6124647;23;20150;-70
2022/07/12 09:15:12;;;;;;;1.00;1.00;;;24.40;78.90;;;;;;6125018;23;20487;-69
2022/07/12 09:17:37;;;;;;;1.10;1.10;;;24.50;80.00;;;;;;6124599;23;20150;-70
2022/07/12 09:20:04;;;;;;;1.20;0.98;;;24.60;77.60;;;;;;6124668;23;20224;-69
2022/07/12 09:22:30;;;;;;;1.08;1.08;;;24.70;76.40;;;;;;6124912;23;20618;-69
2022/07/12 09:24:55;;;;;;;0.73;0.73;;;24.80;71.70;;;;;;6124677;23;20324;-71
2022/07/12 09:27:25;;;;;;;1.75;0.90;;;25.00;74.80;;;;;;6124682;23;20216;-69
2022/07/12 09:29:51;;;;;;;2.42;2.28;;;25.00;73.80;;;;;;6124409;23;20487;-69
2022/07/12 09:37:48;;;;;;;1.65;0.98;;;25.50;71.10;;;;;;6124470;23;20605;-69
2022/07/12 09:40:14;;;;;;;0.93;0.90;;;26.10;69.60;;;;;;6124369;23;20174;-66
2022/07/12 09:42:40;;;;;;;0.98;0.90;;;26.90;67.00;;;;;;6124621;23;20162;-67
2022/07/12 09:45:10;;;;;;;0.50;0.50;;;28.30;65.10;;;;;;6124583;23;20616;-67
2022/07/12 09:47:36;;;;;;;1.05;1.05;;;30.70;58.50;;;;;;6124253;23;20171;-67
2022/07/12 09:50:04;;;;;;;1.95;0.73;;;32.80;54.40;;;;;;6124335;23;20292;-67
2022/07/12 09:52:32;;;;;;;0.73;0.73;;;34.20;50.00;;;;;;6098444;23;20176;-67
2022/07/12 09:55:01;;;;;;;1.40;1.20;;;33.30;47.60;;;;;;6124585;23;20157;-67
2022/07/12 09:57:31;;;;;;;1.35;1.25;;;32.10;49.60;;;;;;6124678;23;20583;-67
2022/07/12 09:59:58;;;;;;;0.75;0.75;;;30.70;51.70;;;;;;6124273;23;20161;-67
2022/07/12 10:02:24;;;;;;;1.67;0.70;;;29.70;53.70;;;;;;6124155;23;20177;-67
2022/07/12 10:04:50;;;;;;;0.85;0.80;;;29.60;54.40;;;;;;6124382;23;20588;-67
2022/07/12 10:07:16;;;;;;;1.15;1.02;;;29.50;55.10;;;;;;6124273;23;20181;-67
2022/07/12 10:09:48;;;;;;;1.05;1.00;;;28.80;56.10;;;;;;6124066;23;20204;-69
2022/07/12 10:12:18;;;;;;;0.93;0.90;;;29.70;57.20;;;;;;6124954;23;20153;-67
2022/07/12 10:14:45;;;;;;;0.77;0.70;;;32.00;53.50;;;;;;6124539;23;20538;-67
2022/07/12 10:17:12;;;;;;;0.63;0.57;;;34.50;50.10;;;;;;6124575;23;20157;-65
2022/07/12 10:19:39;;;;;;;0.73;0.73;;;36.60;46.60;;;;;;6123819;23;20156;-66
2022/07/12 10:22:07;;;;;;;1.08;0.50;;;37.90;42.40;;;;;;6124361;23;20154;-66
2022/07/12 10:24:32;;;;;;;1.60;0.47;;;38.80;40.30;;;;;;6124016;23;20160;-65
2022/07/12 10:27:14;;;;;;;0.93;0.80;;;39.60;39.60;;;;;;6126028;23;20185;-65
2022/07/12 10:29:48;;;;;;;0.77;0.60;;;40.00;38.80;;;;;;6125872;23;20524;-69
2022/07/12 10:32:35;;;;;;;0.60;0.60;;;40.30;38.00;;;;;;6126449;23;20149;-65
2022/07/12 10:35:03;;;;;;;1.77;1.00;;;39.00;38.90;;;;;;6126507;23;20138;-66
2022/07/12 10:37:29;;;;;;;0.50;0.40;;;39.50;39.10;;;;;;6126470;23;20525;-65
2022/07/12 10:40:10;;;;;;;0.63;0.63;;;40.20;38.40;;;;;;6126290;23;20228;-66
2022/07/12 10:42:36;;;;;;;0.65;0.57;;;39.70;36.70;;;;;;6125769;23;20153;-66
2022/07/12 10:45:14;;;;;;;0.70;0.70;;;38.50;38.90;;;;;;6125867;23;20166;-68
2022/07/12 10:47:56;;;;;;;0.88;0.88;;;36.40;40.60;;;;;;6126084;23;20177;-66
2022/07/12 10:50:55;;;;;;;0.70;0.70;;;34.50;44.20;;;;;;6126127;23;20193;-65
2022/07/12 10:53:33;;;;;;;0.50;0.50;;;35.40;42.50;;;;;;6126297;23;20138;-67
2022/07/12 10:56:07;;;;;;;0.60;0.60;;;36.20;42.60;;;;;;6126045;23;20177;-66
2022/07/12 10:58:36;;;;;;;0.50;0.50;;;37.60;43.10;;;;;;6125766;23;20156;-66
2022/07/12 11:01:06;;;;;;;1.30;0.52;;;38.80;39.50;;;;;;6125502;23;20236;-65
2022/07/12 11:03:40;;;;;;;1.23;0.90;;;38.80;39.20;;;;;;6125964;23;20150;-65
2022/07/12 11:06:07;;;;;;;0.50;0.50;;;39.90;37.50;;;;;;6126162;23;20583;-65
2022/07/12 11:08:50;;;;;;;1.17;0.65;;;40.30;37.90;;;;;;6126003;23;20335;-66
2022/07/12 11:11:16;;;;;;;1.13;1.13;;;42.10;36.20;;;;;;6125935;23;20173;-66
2022/07/12 11:13:42;;;;;;;1.20;1.10;;;41.50;36.10;;;;;;6126132;23;20165;-66
2022/07/12 11:16:08;;;;;;;0.77;0.77;;;40.80;35.70;;;;;;6125996;23;20150;-65
2022/07/12 11:18:35;;;;;;;0.50;0.50;;;40.50;36.30;;;;;;6125418;23;20149;-66
2022/07/12 11:21:02;;;;;;;0.65;0.65;;;40.10;35.50;;;;;;6125776;23;20193;-65
2022/07/12 11:23:29;;;;;;;1.20;1.20;;;39.70;35.10;;;;;;6125971;23;20467;-66
2022/07/12 11:25:59;;;;;;;1.02;0.93;;;37.90;37.30;;;;;;6125867;23;20224;-65
2022/07/12 11:28:26;;;;;;;0.40;0.40;;;37.10;39.10;;;;;;6099961;23;20244;-67
2022/07/12 11:30:52;;;;;;;0.60;0.60;;;38.20;37.40;;;;;;6125479;23;20674;-66
2022/07/12 11:33:24;;;;;;;0.80;0.65;;;38.70;38.20;;;;;;6125347;23;20153;-66
2022/07/12 11:35:52;;;;;;;1.27;0.80;;;38.10;40.00;;;;;;6125871;23;20134;-66
2022/07/12 11:38:27;;;;;;;0.95;0.95;;;37.70;38.60;;;;;;6125388;23;20149;-66
2022/07/12 11:40:57;;;;;;;0.60;0.60;;;38.60;37.90;;;;;;6125395;23;20626;-65
2022/07/12 11:43:23;;;;;;;0.50;0.50;;;39.80;36.10;;;;;;6125818;23;20157;-66
2022/07/12 11:45:49;;;;;;;0.57;0.57;;;40.10;35.90;;;;;;6125805;23;20161;-66
2022/07/12 11:48:15;;;;;;;0.50;0.50;;;41.30;36.10;;;;;;6125392;23;20181;-66
2022/07/12 11:50:44;;;;;;;0.40;0.40;;;41.60;34.30;;;;;;6125563;23;20169;-66
2022/07/12 11:53:19;;;;;;;0.60;0.50;;;40.30;34.70;;;;;;6125254;23;20161;-66
2022/07/12 11:55:50;;;;;;;1.35;0.50;;;39.30;36.00;;;;;;6125546;23;20149;-66
2022/07/12 11:58:18;;;;;;;0.70;0.60;;;38.30;36.90;;;;;;6125769;23;20138;-66
2022/07/12 12:00:45;;;;;;;0.40;0.40;;;38.50;37.50;;;;;;6125861;23;20169;-65
2022/07/12 12:03:11;;;;;;;0.63;0.35;;;38.50;36.80;;;;;;6125653;23;20233;-66
2022/07/12 12:05:37;;;;;;;1.70;0.90;;;37.70;38.20;;;;;;6125309;23;20157;-66
2022/07/12 12:08:09;;;;;;;1.58;0.80;;;37.40;37.90;;;;;;6125493;23;20173;-66
2022/07/12 12:10:36;;;;;;;0.30;0.30;;;37.90;38.00;;;;;;6124772;23;20165;-67
2022/07/12 12:13:02;;;;;;;0.82;0.60;;;39.00;36.60;;;;;;6125589;23;20156;-67
2022/07/12 12:15:33;;;;;;;0.88;0.50;;;40.40;35.40;;;;;;6125311;23;20217;-66
2022/07/12 12:18:06;;;;;;;2.63;0.50;;;39.80;34.90;;;;;;6125549;23;20591;-65
2022/07/12 12:20:33;;;;;;;0.50;0.40;;;38.90;34.70;;;;;;6125158;23;20525;-66
2022/07/12 12:23:00;;;;;;;0.60;0.60;;;37.60;37.20;;;;;;6125228;23;20601;-66
2022/07/12 12:25:27;;;;;;;0.30;0.30;;;37.80;37.00;;;;;;6125291;23;20229;-66
2022/07/12 12:28:01;;;;;;;0.22;0.20;;;37.20;37.00;;;;;;6124813;23;20184;-65
2022/07/12 12:30:29;;;;;;;0.73;0.63;;;36.40;37.70;;;;;;6125290;23;20169;-66
2022/07/12 12:32:57;;;;;;;0.30;0.30;;;35.30;39.50;;;;;;6125243;23;20553;-66
2022/07/12 12:35:37;;;;;;;0.85;0.43;;;35.20;40.10;;;;;;6125270;23;20645;-66
2022/07/12 12:38:03;;;;;;;0.40;0.30;;;36.70;38.10;;;;;;6125314;23;20213;-65
2022/07/12 12:40:37;;;;;;;0.40;0.40;;;36.80;37.60;;;;;;6124791;23;20177;-65
2022/07/12 12:43:10;;;;;;;0.60;0.60;;;36.80;37.10;;;;;;6125424;23;20137;-66
2022/07/12 12:45:48;;;;;;;1.08;0.63;;;35.70;39.20;;;;;;6124731;23;20154;-66
2022/07/12 12:48:25;;;;;;;0.63;0.63;;;34.80;40.00;;;;;;6124713;23;20173;-66
2022/07/12 12:50:53;;;;;;;0.32;0.32;;;36.00;40.20;;;;;;6125133;23;20176;-66
2022/07/12 12:53:20;;;;;;;0.30;0.30;;;39.00;37.90;;;;;;6125219;23;20153;-68
2022/07/12 12:55:49;;;;;;;0.50;0.50;;;41.60;34.00;;;;;;6125087;23;20183;-66
2022/07/12 12:58:16;;;;;;;0.43;0.43;;;43.80;33.20;;;;;;6124841;23;20537;-67
2022/07/12 13:00:44;;;;;;;0.47;0.20;;;44.80;31.00;;;;;;6124874;23;20181;-67